Terminal Aerodrome Forecast
Issued by NWS

Home | Current Version | Previous Version | Text Only | Print | Product List | Glossary On
Versions: 1 2 3 4 5 6 7 8 9 10 11 12 13 14 15 16 17
655
FTUS43 KDLH 210523
TAFHIB
TAF
KHIB 210523Z 2106/2206 31018G30KT P6SM BKN020 BKN050
     FM210730 32015G25KT P6SM SCT050
     FM211400 33014G21KT P6SM SCT060
     FM220000 34009KT P6SM SKC=

USA.gov is the U.S. government's official web portal to all federal, state and local government web resources and services.